createdAt,value
2018-09-19T00:01:10.149Z,18.40
2018-09-19T00:03:38.754Z,18.40
2018-09-19T00:06:07.541Z,18.30
2018-09-19T00:08:35.989Z,18.30
2018-09-19T00:11:04.534Z,18.30
2018-09-19T00:13:33.132Z,18.20
2018-09-19T00:16:01.615Z,18.20
2018-09-19T00:18:30.203Z,18.20
2018-09-19T00:20:58.669Z,18.20
2018-09-19T00:23:27.162Z,18.20
2018-09-19T00:25:55.852Z,18.10
2018-09-19T00:28:24.333Z,18.10
2018-09-19T00:30:52.852Z,18.00
2018-09-19T00:33:21.445Z,18.00
2018-09-19T00:35:49.960Z,17.90
2018-09-19T00:38:18.449Z,17.90
2018-09-19T00:40:46.858Z,17.90
2018-09-19T00:43:15.340Z,17.80
2018-09-19T00:45:43.775Z,17.80
2018-09-19T00:48:12.243Z,17.70
2018-09-19T00:50:40.735Z,17.70
2018-09-19T00:53:09.212Z,17.60
2018-09-19T00:55:37.832Z,17.60
2018-09-19T00:58:06.373Z,17.60
2018-09-19T01:00:34.978Z,17.50
2018-09-19T01:03:03.523Z,17.50
2018-09-19T01:05:32.012Z,17.40
2018-09-19T01:08:00.545Z,17.40
2018-09-19T01:10:29.054Z,17.30
2018-09-19T01:12:57.570Z,17.30
2018-09-19T01:15:26.024Z,17.20
2018-09-19T01:17:54.492Z,17.20
2018-09-19T01:20:23.049Z,17.10
2018-09-19T01:22:51.492Z,17.10
2018-09-19T01:25:19.956Z,17.10
2018-09-19T01:27:48.408Z,17.10
2018-09-19T01:30:16.956Z,17.10
2018-09-19T01:32:45.506Z,17.00
2018-09-19T01:35:14.230Z,17.00
2018-09-19T01:37:42.847Z,17.00
2018-09-19T01:40:11.370Z,16.90
2018-09-19T01:42:39.881Z,16.90
2018-09-19T01:45:08.359Z,16.90
2018-09-19T01:47:36.932Z,16.90
2018-09-19T01:50:05.475Z,16.80
2018-09-19T01:52:33.900Z,16.80
2018-09-19T01:55:02.514Z,16.80
2018-09-19T01:57:30.958Z,16.80
2018-09-19T01:59:59.531Z,16.70
2018-09-19T02:02:28.000Z,16.70
2018-09-19T02:04:56.455Z,16.60
2018-09-19T02:07:24.985Z,16.60
2018-09-19T02:09:53.412Z,16.50
2018-09-19T02:12:21.952Z,16.50
2018-09-19T02:14:50.437Z,16.50
2018-09-19T02:17:19.048Z,16.50
2018-09-19T02:19:47.528Z,16.40
2018-09-19T02:22:16.008Z,16.40
2018-09-19T02:24:44.409Z,16.30
2018-09-19T02:27:12.918Z,16.30
2018-09-19T02:29:41.432Z,16.30
2018-09-19T02:32:09.933Z,16.30
2018-09-19T02:34:38.394Z,16.20
2018-09-19T02:37:06.855Z,16.20
2018-09-19T02:39:35.333Z,16.20
2018-09-19T02:42:03.832Z,16.10
2018-09-19T02:44:32.331Z,16.10
2018-09-19T02:47:00.817Z,16.10
2018-09-19T02:49:29.245Z,16.10
2018-09-19T02:51:58.385Z,16.00
2018-09-19T02:54:29.135Z,16.00
2018-09-19T02:56:57.754Z,16.00
2018-09-19T02:59:26.464Z,16.00
2018-09-19T03:01:54.957Z,16.00
2018-09-19T03:04:23.426Z,16.00
2018-09-19T03:06:51.902Z,16.00
2018-09-19T03:09:20.401Z,16.00
2018-09-19T03:11:48.890Z,16.00
2018-09-19T03:14:17.407Z,16.00
2018-09-19T03:16:46.180Z,16.00
2018-09-19T03:19:14.732Z,15.90
2018-09-19T03:21:43.230Z,16.00
2018-09-19T03:24:11.737Z,16.00
2018-09-19T03:26:40.243Z,16.00
2018-09-19T03:29:08.694Z,16.00
2018-09-19T03:31:37.337Z,16.00
2018-09-19T03:34:05.992Z,15.90
2018-09-19T03:36:34.696Z,15.90
2018-09-19T03:39:03.526Z,15.90
2018-09-19T03:41:32.117Z,15.90
2018-09-19T03:44:00.711Z,15.90
2018-09-19T03:46:29.176Z,15.90
2018-09-19T03:48:57.757Z,15.90
2018-09-19T03:51:26.433Z,15.80
2018-09-19T03:53:54.861Z,15.80
2018-09-19T03:56:23.339Z,15.80
2018-09-19T03:58:51.841Z,15.80
2018-09-19T04:01:20.381Z,15.80
2018-09-19T04:03:48.889Z,15.80
2018-09-19T04:06:17.361Z,15.80
2018-09-19T04:08:45.951Z,15.90
2018-09-19T04:11:14.408Z,15.90
2018-09-19T04:13:42.986Z,15.90
2018-09-19T04:16:11.426Z,15.80
2018-09-19T04:18:39.869Z,15.90
2018-09-19T04:21:08.322Z,15.80
2018-09-19T04:23:36.782Z,15.80
2018-09-19T04:26:05.392Z,15.80
2018-09-19T04:28:33.796Z,15.80
2018-09-19T04:31:02.269Z,15.70
2018-09-19T04:33:30.732Z,15.70
2018-09-19T04:35:59.234Z,15.70
2018-09-19T04:38:27.932Z,15.70
2018-09-19T04:40:56.413Z,15.70
2018-09-19T04:43:25.071Z,15.60
2018-09-19T04:45:53.960Z,15.60
2018-09-19T04:48:23.485Z,15.60
2018-09-19T04:50:51.966Z,15.60
2018-09-19T04:53:20.446Z,15.60
2018-09-19T04:55:49.176Z,15.60
2018-09-19T04:58:17.686Z,15.60
2018-09-19T05:00:46.146Z,15.60
2018-09-19T05:03:14.777Z,15.60
2018-09-19T05:05:43.323Z,15.60
2018-09-19T05:08:11.787Z,15.60
2018-09-19T05:10:40.213Z,15.60
2018-09-19T05:13:08.810Z,15.70
2018-09-19T05:15:37.563Z,15.60
2018-09-19T05:18:06.292Z,15.70
2018-09-19T05:20:35.035Z,15.70
2018-09-19T05:23:03.718Z,15.70
2018-09-19T05:25:32.584Z,15.80
2018-09-19T05:28:04.203Z,15.80
2018-09-19T05:30:33.052Z,15.80
2018-09-19T05:33:01.685Z,15.80
2018-09-19T05:35:30.458Z,15.80
2018-09-19T05:37:59.051Z,15.90
2018-09-19T05:40:28.011Z,15.90
2018-09-19T05:42:56.725Z,16.00
2018-09-19T05:45:25.495Z,16.10
2018-09-19T05:47:54.296Z,16.10
2018-09-19T05:50:22.988Z,16.20
2018-09-19T05:52:51.421Z,16.30
2018-09-19T05:55:20.050Z,16.40
2018-09-19T05:57:48.888Z,16.50
2018-09-19T06:00:17.605Z,16.60
2018-09-19T06:02:46.240Z,16.60
2018-09-19T06:05:14.829Z,16.70
2018-09-19T06:07:43.268Z,16.80
2018-09-19T06:10:11.778Z,16.90
2018-09-19T06:12:40.268Z,17.10
2018-09-19T06:15:08.773Z,17.20
2018-09-19T06:17:37.764Z,17.30
2018-09-19T06:20:06.902Z,17.50
2018-09-19T06:22:35.322Z,17.70
2018-09-19T06:25:04.054Z,17.90
2018-09-19T06:27:32.625Z,18.00
2018-09-19T06:30:01.689Z,18.20
2018-09-19T06:32:30.173Z,18.40
2018-09-19T06:34:58.641Z,18.70
2018-09-19T06:37:27.226Z,18.90
2018-09-19T06:39:55.739Z,19.20
2018-09-19T06:42:24.230Z,19.70
2018-09-19T06:44:52.794Z,20.20
2018-09-19T06:47:21.248Z,20.80
2018-09-19T06:49:49.731Z,21.40
2018-09-19T06:52:18.282Z,22.00
2018-09-19T06:54:46.681Z,22.50
2018-09-19T06:57:15.218Z,23.00
2018-09-19T06:59:43.770Z,23.20
2018-09-19T07:02:12.430Z,23.60
2018-09-19T07:04:40.957Z,24.00
2018-09-19T07:07:09.472Z,24.40
2018-09-19T07:09:38.556Z,24.70
2018-09-19T07:12:07.079Z,25.00
2018-09-19T07:14:35.535Z,25.40
2018-09-19T07:17:04.026Z,25.80
2018-09-19T07:19:32.462Z,26.10
2018-09-19T07:22:01.001Z,26.60
2018-09-19T07:24:29.427Z,27.10
2018-09-19T07:26:57.899Z,27.60
2018-09-19T07:29:26.340Z,27.80
2018-09-19T07:31:54.785Z,28.00
2018-09-19T07:34:23.238Z,28.30
2018-09-19T07:36:51.718Z,28.50
2018-09-19T07:39:20.239Z,28.80
2018-09-19T07:41:48.749Z,28.90
2018-09-19T07:44:17.305Z,29.20
2018-09-19T07:46:45.892Z,29.50
2018-09-19T07:49:14.293Z,29.60
2018-09-19T07:51:42.736Z,29.70
2018-09-19T07:54:11.353Z,30.00
2018-09-19T07:56:39.965Z,30.30
2018-09-19T07:59:10.195Z,30.30
2018-09-19T08:01:38.838Z,30.60
2018-09-19T08:04:07.415Z,30.90
2018-09-19T08:06:35.833Z,31.30
2018-09-19T08:09:06.165Z,31.50
2018-09-19T08:11:34.602Z,31.60
2018-09-19T08:14:03.108Z,31.60
2018-09-19T08:16:31.578Z,31.50
2018-09-19T08:19:00.034Z,31.70
2018-09-19T08:21:28.532Z,31.80
2018-09-19T08:23:56.975Z,32.10
2018-09-19T08:26:25.434Z,31.90
2018-09-19T08:28:53.869Z,31.10
2018-09-19T08:31:22.328Z,30.20
2018-09-19T08:33:50.836Z,29.40
2018-09-19T08:36:19.312Z,28.90
2018-09-19T08:38:47.802Z,28.60
2018-09-19T08:41:16.273Z,28.30
2018-09-19T08:43:44.748Z,28.00
2018-09-19T08:46:13.265Z,28.00
2018-09-19T08:48:41.910Z,28.30
2018-09-19T08:51:10.401Z,28.50
2018-09-19T08:53:39.041Z,28.60
2018-09-19T08:56:07.481Z,28.80
2018-09-19T08:58:35.960Z,29.10
2018-09-19T09:01:04.433Z,29.40
2018-09-19T09:03:32.884Z,29.80
2018-09-19T09:06:01.370Z,30.30
2018-09-19T09:08:29.824Z,30.90
2018-09-19T09:10:58.245Z,31.50
2018-09-19T09:13:26.745Z,31.80
2018-09-19T09:15:55.200Z,31.90
2018-09-19T09:18:23.645Z,32.20
2018-09-19T09:20:52.089Z,32.70
2018-09-19T09:23:20.563Z,33.20
2018-09-19T09:25:49.032Z,33.60
2018-09-19T09:28:17.600Z,33.70
2018-09-19T09:30:46.146Z,33.70
2018-09-19T09:33:14.623Z,34.20
2018-09-19T09:35:43.093Z,34.60
2018-09-19T09:38:11.624Z,35.00
2018-09-19T09:40:40.056Z,35.40
2018-09-19T09:43:08.499Z,35.30
2018-09-19T09:45:36.981Z,35.30
2018-09-19T09:48:05.777Z,35.30
2018-09-19T09:50:34.302Z,35.50
2018-09-19T09:53:02.819Z,35.60
2018-09-19T09:55:31.282Z,35.80
2018-09-19T09:57:59.733Z,36.20
2018-09-19T10:00:33.460Z,36.20
2018-09-19T10:03:01.985Z,36.20
2018-09-19T10:05:30.678Z,36.30
2018-09-19T10:07:59.132Z,35.90
2018-09-19T10:10:27.552Z,35.30
2018-09-19T10:12:56.104Z,34.70
2018-09-19T10:15:24.565Z,34.40
2018-09-19T10:17:53.017Z,33.90
2018-09-19T10:20:21.470Z,33.30
2018-09-19T10:22:49.931Z,32.70
2018-09-19T10:25:18.400Z,32.20
2018-09-19T10:27:47.024Z,32.20
2018-09-19T10:30:15.513Z,32.30
2018-09-19T10:32:44.246Z,32.50
2018-09-19T10:35:12.714Z,33.10
2018-09-19T10:37:41.149Z,33.30
2018-09-19T10:40:09.835Z,33.40
2018-09-19T10:42:38.735Z,33.70
2018-09-19T10:45:07.992Z,34.20
2018-09-19T10:47:37.144Z,34.70
2018-09-19T10:50:06.146Z,34.90
2018-09-19T10:52:34.756Z,34.80
2018-09-19T10:55:03.324Z,34.70
2018-09-19T10:57:31.998Z,34.70
2018-09-19T11:00:01.986Z,34.60
2018-09-19T11:02:30.484Z,34.50
2018-09-19T11:04:59.172Z,34.00
2018-09-19T11:07:27.902Z,33.60
2018-09-19T11:09:56.747Z,32.90
2018-09-19T11:12:25.395Z,32.40
2018-09-19T11:14:54.033Z,32.10
2018-09-19T11:17:23.830Z,31.70
2018-09-19T11:19:52.388Z,31.20
2018-09-19T11:22:21.025Z,31.00
2018-09-19T11:24:49.653Z,30.90
2018-09-19T11:27:18.283Z,31.00
2018-09-19T11:29:46.829Z,31.20
2018-09-19T11:32:15.531Z,31.30
2018-09-19T11:34:44.078Z,31.50
2018-09-19T11:37:12.534Z,31.50
2018-09-19T11:39:41.009Z,31.70
2018-09-19T11:42:09.633Z,31.90
2018-09-19T11:44:38.075Z,32.10
2018-09-19T11:47:06.744Z,32.00
2018-09-19T11:49:35.333Z,31.70
2018-09-19T11:52:03.896Z,31.60
2018-09-19T11:54:32.590Z,31.40
2018-09-19T11:57:01.405Z,31.40
2018-09-19T11:59:30.194Z,31.30
2018-09-19T12:01:59.068Z,31.40
2018-09-19T12:04:28.114Z,31.50
2018-09-19T12:06:56.946Z,31.60
2018-09-19T12:09:25.389Z,31.50
2018-09-19T12:11:53.892Z,31.60
2018-09-19T12:14:22.660Z,31.70
2018-09-19T12:16:51.408Z,31.70
2018-09-19T12:19:19.892Z,31.40
2018-09-19T12:21:48.393Z,31.10
2018-09-19T12:24:17.084Z,31.10
2018-09-19T12:26:45.723Z,30.90
2018-09-19T12:29:14.310Z,30.90
2018-09-19T12:31:42.918Z,30.80
2018-09-19T12:34:11.687Z,30.90
2018-09-19T12:36:40.175Z,30.80
2018-09-19T12:39:09.992Z,30.90
2018-09-19T12:41:38.819Z,30.80
2018-09-19T12:44:07.376Z,30.80
2018-09-19T12:46:36.223Z,30.80
2018-09-19T12:49:04.978Z,30.70
2018-09-19T12:51:33.461Z,30.60
2018-09-19T12:54:02.271Z,30.50
2018-09-19T12:56:31.037Z,30.40
2018-09-19T12:59:00.164Z,30.40
2018-09-19T13:01:28.720Z,30.50
2018-09-19T13:03:57.179Z,30.60
2018-09-19T13:06:25.668Z,30.60
2018-09-19T13:08:54.254Z,30.60
2018-09-19T13:11:22.851Z,30.60
2018-09-19T13:13:51.451Z,30.60
2018-09-19T13:16:19.903Z,30.50
2018-09-19T13:18:48.475Z,30.50
2018-09-19T13:21:17.177Z,30.40
2018-09-19T13:23:45.636Z,30.40
2018-09-19T13:26:14.151Z,30.30
2018-09-19T13:28:42.685Z,30.30
2018-09-19T13:31:11.220Z,30.20
2018-09-19T13:33:39.711Z,30.20
2018-09-19T13:36:08.946Z,30.20
2018-09-19T13:38:38.005Z,30.30
2018-09-19T13:41:06.826Z,30.40
2018-09-19T13:43:35.928Z,30.30
2018-09-19T13:46:04.559Z,30.20
2018-09-19T13:48:37.332Z,30.20
2018-09-19T13:51:14.808Z,30.20
2018-09-19T13:53:43.255Z,30.20
2018-09-19T13:56:11.768Z,30.30
2018-09-19T13:58:40.243Z,30.40
2018-09-19T14:01:08.784Z,30.30
2018-09-19T14:03:37.288Z,30.10
2018-09-19T14:06:06.443Z,29.90
2018-09-19T14:08:34.957Z,29.70
2018-09-19T14:11:03.545Z,29.70
2018-09-19T14:13:32.119Z,29.70
2018-09-19T14:16:00.561Z,29.70
2018-09-19T14:18:29.073Z,29.80
2018-09-19T14:20:57.627Z,29.90
2018-09-19T14:23:26.295Z,30.00
2018-09-19T14:25:54.749Z,30.00
2018-09-19T14:28:23.279Z,30.10
2018-09-19T14:30:51.699Z,30.00
2018-09-19T14:33:20.511Z,29.90
2018-09-19T14:35:49.088Z,29.70
2018-09-19T14:38:17.692Z,29.70
2018-09-19T14:40:46.127Z,29.70
2018-09-19T14:43:14.642Z,29.70
2018-09-19T14:45:43.259Z,29.70
2018-09-19T14:48:11.927Z,29.70
2018-09-19T14:50:40.534Z,29.80
2018-09-19T14:53:09.131Z,29.70
2018-09-19T14:55:37.946Z,29.80
2018-09-19T14:58:06.679Z,29.80
2018-09-19T15:00:35.324Z,29.80
2018-09-19T15:03:03.849Z,29.70
2018-09-19T15:05:32.814Z,29.70
2018-09-19T15:08:01.655Z,29.60
2018-09-19T15:10:30.205Z,29.70
2018-09-19T15:12:58.674Z,29.60
2018-09-19T15:15:27.528Z,29.60
2018-09-19T15:17:56.224Z,29.60
2018-09-19T15:20:24.803Z,29.50
2018-09-19T15:22:53.380Z,29.40
2018-09-19T15:25:22.027Z,29.40
2018-09-19T15:27:50.669Z,29.40
2018-09-19T15:30:19.218Z,29.40
2018-09-19T15:32:47.709Z,29.40
2018-09-19T15:35:16.456Z,29.40
2018-09-19T15:37:45.350Z,29.50
2018-09-19T15:40:14.302Z,29.40
2018-09-19T15:42:42.913Z,29.40
2018-09-19T15:45:11.706Z,29.30
2018-09-19T15:47:40.225Z,29.30
2018-09-19T15:50:08.719Z,29.20
2018-09-19T15:52:37.301Z,29.20
2018-09-19T15:55:05.819Z,29.10
2018-09-19T15:57:34.364Z,29.00
2018-09-19T16:00:03.000Z,28.90
2018-09-19T16:02:31.473Z,28.80
2018-09-19T16:05:00.329Z,28.80
2018-09-19T16:07:28.900Z,28.70
2018-09-19T16:09:57.437Z,28.60
2018-09-19T16:12:25.957Z,28.60
2018-09-19T16:14:54.736Z,28.50
2018-09-19T16:17:23.559Z,28.40
2018-09-19T16:19:52.280Z,28.40
2018-09-19T16:22:21.211Z,28.30
2018-09-19T16:24:49.852Z,28.20
2018-09-19T16:27:18.618Z,28.10
2018-09-19T16:29:47.351Z,28.10
2018-09-19T16:32:15.988Z,28.00
2018-09-19T16:34:44.533Z,27.90
2018-09-19T16:37:13.129Z,27.80
2018-09-19T16:39:41.863Z,27.60
2018-09-19T16:42:10.754Z,27.50
2018-09-19T16:44:39.533Z,27.40
2018-09-19T16:47:08.179Z,27.20
2018-09-19T16:49:36.820Z,27.20
2018-09-19T16:52:05.463Z,27.00
2018-09-19T16:54:34.189Z,26.90
2018-09-19T16:57:02.850Z,26.80
2018-09-19T16:59:31.472Z,26.80
2018-09-19T17:02:00.154Z,26.70
2018-09-19T17:04:29.408Z,26.60
2018-09-19T17:06:59.421Z,26.50
2018-09-19T17:09:28.450Z,26.40
2018-09-19T17:11:57.775Z,26.30
2018-09-19T17:14:27.137Z,26.20
2018-09-19T17:16:56.127Z,26.10
2018-09-19T17:19:24.963Z,26.00
2018-09-19T17:21:53.555Z,25.90
2018-09-19T17:24:22.571Z,25.80
2018-09-19T17:26:51.149Z,25.70
2018-09-19T17:29:19.744Z,25.60
2018-09-19T17:31:48.625Z,25.50
2018-09-19T17:34:17.268Z,25.50
2018-09-19T17:36:46.114Z,25.40
2018-09-19T17:39:14.648Z,25.30
2018-09-19T17:41:43.273Z,25.20
2018-09-19T17:44:11.845Z,25.10
2018-09-19T17:46:40.608Z,25.00
2018-09-19T17:49:09.305Z,25.00
2018-09-19T17:51:37.967Z,24.80
2018-09-19T17:54:07.688Z,24.80
2018-09-19T17:56:36.404Z,24.60
2018-09-19T17:59:05.072Z,24.60
2018-09-19T18:01:33.956Z,24.50
2018-09-19T18:04:02.646Z,24.40
2018-09-19T18:06:31.440Z,24.30
2018-09-19T18:09:00.304Z,24.20
2018-09-19T18:11:29.268Z,24.10
2018-09-19T18:13:57.885Z,24.10
2018-09-19T18:16:27.415Z,24.00
2018-09-19T18:18:56.073Z,23.90
2018-09-19T18:21:24.693Z,23.90
2018-09-19T18:23:53.700Z,23.80
2018-09-19T18:26:22.228Z,23.70
2018-09-19T18:28:50.811Z,23.70
2018-09-19T18:31:19.490Z,23.60
2018-09-19T18:33:48.234Z,23.60
2018-09-19T18:36:16.833Z,23.50
2018-09-19T18:38:45.397Z,23.40
2018-09-19T18:41:13.937Z,23.30
2018-09-19T18:43:42.609Z,23.30
2018-09-19T18:46:11.893Z,23.30
2018-09-19T18:48:40.405Z,23.20
2018-09-19T18:51:08.974Z,23.10
2018-09-19T18:53:37.740Z,23.10
2018-09-19T18:56:06.454Z,23.00
2018-09-19T18:58:35.030Z,22.90
2018-09-19T19:01:03.777Z,22.90
2018-09-19T19:03:32.743Z,22.80
2018-09-19T19:06:01.437Z,22.80
2018-09-19T19:08:30.170Z,22.70
2018-09-19T19:10:58.863Z,22.70
2018-09-19T19:13:27.493Z,22.60
2018-09-19T19:15:56.488Z,22.50
2018-09-19T19:18:25.267Z,22.50
2018-09-19T19:20:54.328Z,22.40
2018-09-19T19:23:22.896Z,22.40
2018-09-19T19:25:53.005Z,22.40
2018-09-19T19:28:21.740Z,22.30
2018-09-19T19:30:50.534Z,22.20
2018-09-19T19:33:19.974Z,22.20
2018-09-19T19:35:48.951Z,22.10
2018-09-19T19:38:21.142Z,22.00
2018-09-19T19:40:51.208Z,22.00
2018-09-19T19:43:20.561Z,21.90
2018-09-19T19:45:49.522Z,21.80
2018-09-19T19:48:18.531Z,21.70
2018-09-19T19:50:47.815Z,21.70
2018-09-19T19:53:17.397Z,21.60
2018-09-19T19:55:46.237Z,21.50
2018-09-19T19:58:15.181Z,21.40
2018-09-19T20:00:44.474Z,21.40
2018-09-19T20:03:14.284Z,21.30
2018-09-19T20:05:43.747Z,21.20
2018-09-19T20:08:13.308Z,21.20
2018-09-19T20:10:41.908Z,21.10
2018-09-19T20:13:10.725Z,21.00
2018-09-19T20:15:39.270Z,21.00
2018-09-19T20:18:08.089Z,21.00
2018-09-19T20:20:36.595Z,20.90
2018-09-19T20:23:06.030Z,20.80
2018-09-19T20:25:34.587Z,20.80
2018-09-19T20:28:03.238Z,20.70
2018-09-19T20:30:31.708Z,20.60
2018-09-19T20:33:00.161Z,20.60
2018-09-19T20:35:28.629Z,20.50
2018-09-19T20:37:58.090Z,20.50
2018-09-19T20:40:26.537Z,20.40
2018-09-19T20:42:56.176Z,20.40
2018-09-19T20:45:24.644Z,20.30
2018-09-19T20:47:54.158Z,20.30
2018-09-19T20:50:22.627Z,20.30
2018-09-19T20:52:51.377Z,20.40
2018-09-19T20:55:19.870Z,20.40
2018-09-19T20:57:48.972Z,20.50
2018-09-19T21:00:17.445Z,20.50
2018-09-19T21:02:45.916Z,20.40
2018-09-19T21:05:14.377Z,20.40
2018-09-19T21:07:42.806Z,20.40
2018-09-19T21:10:11.255Z,20.30
2018-09-19T21:12:39.932Z,20.30
2018-09-19T21:15:08.425Z,20.20
2018-09-19T21:17:36.893Z,20.20
2018-09-19T21:20:05.686Z,20.20
2018-09-19T21:22:34.197Z,20.20
2018-09-19T21:25:02.722Z,20.10
2018-09-19T21:27:31.251Z,20.10
2018-09-19T21:29:59.713Z,20.10
2018-09-19T21:32:28.277Z,20.00
2018-09-19T21:34:56.790Z,20.00
2018-09-19T21:37:25.307Z,19.90
2018-09-19T21:39:53.800Z,19.90
2018-09-19T21:42:22.446Z,19.90
2018-09-19T21:44:50.974Z,19.80
2018-09-19T21:47:19.413Z,19.80
2018-09-19T21:49:47.943Z,19.80
2018-09-19T21:52:16.684Z,19.80
2018-09-19T21:54:45.153Z,19.80
2018-09-19T21:57:13.706Z,19.70
2018-09-19T21:59:42.182Z,19.70
2018-09-19T22:02:10.728Z,19.60
2018-09-19T22:04:39.293Z,19.50
2018-09-19T22:07:07.790Z,19.40
2018-09-19T22:09:36.277Z,19.30
2018-09-19T22:12:08.944Z,19.20
2018-09-19T22:14:37.729Z,19.10
2018-09-19T22:17:06.524Z,19.00
2018-09-19T22:19:35.256Z,18.90
2018-09-19T22:22:03.837Z,18.80
2018-09-19T22:24:32.705Z,18.70
2018-09-19T22:27:01.180Z,18.70
2018-09-19T22:29:29.624Z,18.60
2018-09-19T22:31:58.186Z,18.50
2018-09-19T22:34:26.814Z,18.40
2018-09-19T22:36:55.307Z,18.40
2018-09-19T22:39:23.915Z,18.30
2018-09-19T22:41:52.426Z,18.30
2018-09-19T22:44:20.955Z,18.20
2018-09-19T22:46:49.505Z,18.10
2018-09-19T22:49:18.046Z,18.10
2018-09-19T22:51:46.607Z,18.00
2018-09-19T22:54:15.046Z,18.00
2018-09-19T22:56:43.726Z,17.90
2018-09-19T22:59:12.425Z,17.90
2018-09-19T23:01:40.997Z,17.80
2018-09-19T23:04:09.505Z,17.80
2018-09-19T23:06:38.232Z,17.80
2018-09-19T23:09:07.896Z,17.70
2018-09-19T23:11:36.423Z,17.70
2018-09-19T23:14:04.930Z,17.70
2018-09-19T23:16:33.437Z,17.60
2018-09-19T23:19:02.284Z,17.60
2018-09-19T23:21:30.829Z,17.60
2018-09-19T23:23:59.441Z,17.60
2018-09-19T23:26:28.076Z,17.60
2018-09-19T23:28:56.629Z,17.60
2018-09-19T23:31:25.358Z,17.50
2018-09-19T23:33:54.395Z,17.50
2018-09-19T23:36:23.024Z,17.50
2018-09-19T23:38:51.605Z,17.50
2018-09-19T23:41:20.086Z,17.50
2018-09-19T23:43:48.624Z,17.50
2018-09-19T23:46:17.102Z,17.40
2018-09-19T23:48:45.648Z,17.40
2018-09-19T23:51:14.196Z,17.30
2018-09-19T23:53:42.719Z,17.30
2018-09-19T23:56:11.201Z,17.30
2018-09-19T23:58:39.654Z,17.30
